createdAt,value
2023-05-10T00:04:59.696Z,6.38
2023-05-10T00:10:02.232Z,6.13
2023-05-10T00:15:06.631Z,6.61
2023-05-10T00:20:10.522Z,6.25
2023-05-10T00:25:12.895Z,6.59
2023-05-10T00:30:15.578Z,6.74
2023-05-10T00:35:18.370Z,6.74
2023-05-10T00:40:20.816Z,6.72
2023-05-10T00:45:28.562Z,6.34
2023-05-10T00:50:32.359Z,6.42
2023-05-10T00:55:34.819Z,6.69
2023-05-10T01:00:38.768Z,6.67
2023-05-10T01:05:41.213Z,6.05
2023-05-10T01:10:44.533Z,5.96
2023-05-10T01:15:48.416Z,6.62
2023-05-10T01:21:10.352Z,6.53
2023-05-10T01:26:26.447Z,6.61
2023-05-10T01:31:31.857Z,6.55
2023-05-10T01:36:54.572Z,6.61
2023-05-10T01:42:12.769Z,6.47
2023-05-10T01:48:00.659Z,6.61
2023-05-10T01:53:04.199Z,6.35
2023-05-10T01:58:11.832Z,5.72
2023-05-10T02:03:15.279Z,6.13
2023-05-10T02:08:19.188Z,6.25
2023-05-10T02:13:23.133Z,6.33
2023-05-10T02:18:27.376Z,6.29
2023-05-10T02:23:31.213Z,6.11
2023-05-10T02:28:33.974Z,6.45
2023-05-10T02:33:40.874Z,6.27
2023-05-10T02:38:43.529Z,6.15
2023-05-10T02:43:46.870Z,6.44
2023-05-10T02:48:49.329Z,6.46
2023-05-10T02:53:52.424Z,6.25
2023-05-10T02:58:54.913Z,6.15
2023-05-10T03:03:57.502Z,6.38
2023-05-10T03:09:00.357Z,5.79
2023-05-10T03:14:23.805Z,6.56
2023-05-10T03:19:32.258Z,5.53
2023-05-10T03:24:36.006Z,5.87
2023-05-10T03:29:39.402Z,6.60
2023-05-10T03:34:46.180Z,6.65
2023-05-10T03:39:48.485Z,5.57
2023-05-10T03:44:51.363Z,6.58
2023-05-10T03:49:55.432Z,6.62
2023-05-10T03:54:58.506Z,6.81
2023-05-10T04:00:01.188Z,6.31
2023-05-10T04:05:09.090Z,6.92
2023-05-10T04:10:12.728Z,6.52
2023-05-10T04:15:15.208Z,6.87
2023-05-10T04:20:18.325Z,6.78
2023-05-10T04:25:20.888Z,6.95
2023-05-10T04:30:24.235Z,7.11
2023-05-10T04:35:27.796Z,7.20
2023-05-10T04:40:30.417Z,6.95
2023-05-10T04:45:32.888Z,7.38
2023-05-10T04:50:35.529Z,6.99
2023-05-10T04:55:39.650Z,7.31
2023-05-10T05:00:42.153Z,7.72
2023-05-10T05:05:45.908Z,8.06
2023-05-10T05:10:51.665Z,8.10
2023-05-10T05:15:54.848Z,7.80
2023-05-10T05:20:57.437Z,8.41
2023-05-10T05:26:00.599Z,8.69
2023-05-10T05:31:03.091Z,8.72
2023-05-10T05:36:06.744Z,9.24
2023-05-10T05:41:09.351Z,9.43
2023-05-10T05:46:12.192Z,9.28
2023-05-10T05:51:14.620Z,9.23
2023-05-10T05:56:17.026Z,9.54
2023-05-10T06:01:19.537Z,10.13
2023-05-10T06:06:22.124Z,10.05
2023-05-10T06:11:25.270Z,10.15
2023-05-10T06:16:28.050Z,10.52
2023-05-10T06:21:33.009Z,10.67
2023-05-10T06:26:35.433Z,10.79
2023-05-10T06:31:38.141Z,10.54
2023-05-10T06:36:40.748Z,10.95
2023-05-10T06:41:43.587Z,10.71
2023-05-10T06:46:46.452Z,11.51
2023-05-10T06:51:49.670Z,11.32
2023-05-10T06:56:52.162Z,11.65
2023-05-10T07:01:55.190Z,11.87
2023-05-10T07:06:59.047Z,11.97
2023-05-10T07:12:03.144Z,11.97
2023-05-10T07:17:07.372Z,10.26
2023-05-10T07:22:09.969Z,12.16
2023-05-10T07:27:13.009Z,12.16
2023-05-10T07:32:15.701Z,11.83
2023-05-10T07:37:21.430Z,10.06
2023-05-10T07:42:24.293Z,12.42
2023-05-10T07:47:27.402Z,11.93
2023-05-10T07:52:29.937Z,12.50
2023-05-10T07:57:32.476Z,13.39
2023-05-10T08:02:36.888Z,13.70
2023-05-10T08:07:39.617Z,14.09
2023-05-10T08:12:42.221Z,14.24
2023-05-10T08:17:44.709Z,14.35
2023-05-10T08:22:48.570Z,15.09
2023-05-10T08:27:52.274Z,15.60
2023-05-10T08:32:54.712Z,15.49
2023-05-10T08:37:57.118Z,16.12
2023-05-10T08:43:13.893Z,15.98
2023-05-10T08:48:16.908Z,15.94
2023-05-10T08:53:20.661Z,15.75
2023-05-10T08:58:23.805Z,15.69
2023-05-10T09:03:26.428Z,15.68
2023-05-10T09:08:29.248Z,15.32
2023-05-10T09:13:32.085Z,15.55
2023-05-10T09:18:34.831Z,15.11
2023-05-10T09:23:38.711Z,15.37
2023-05-10T09:28:54.381Z,15.68
2023-05-10T09:33:56.725Z,15.39
2023-05-10T09:38:59.195Z,15.65
2023-05-10T09:44:01.716Z,15.55
2023-05-10T09:49:04.296Z,15.65
2023-05-10T09:54:17.372Z,15.82
2023-05-10T09:59:20.128Z,15.90
2023-05-10T10:04:22.762Z,15.78
2023-05-10T10:09:25.973Z,15.42
2023-05-10T10:14:28.914Z,15.55
2023-05-10T10:19:32.086Z,15.83
2023-05-10T10:24:35.136Z,16.25
2023-05-10T10:30:27.540Z,16.39
2023-05-10T10:35:31.021Z,16.31
2023-05-10T10:40:35.286Z,16.44
2023-05-10T10:45:42.109Z,16.38
2023-05-10T10:50:47.076Z,16.37
2023-05-10T10:55:49.855Z,16.46
2023-05-10T11:01:13.177Z,16.49
2023-05-10T11:06:33.743Z,15.80
2023-05-10T11:11:37.485Z,16.22
2023-05-10T11:16:44.398Z,16.02
2023-05-10T11:22:15.057Z,16.46
2023-05-10T11:27:17.547Z,16.34
2023-05-10T11:32:22.589Z,16.11
2023-05-10T11:37:25.179Z,16.26
2023-05-10T11:42:29.469Z,16.30
2023-05-10T11:47:31.933Z,16.37
2023-05-10T11:52:40.716Z,16.42
2023-05-10T11:57:45.458Z,16.59
2023-05-10T12:02:48.630Z,16.58
2023-05-10T12:07:51.225Z,16.57
2023-05-10T12:12:54.277Z,16.55
2023-05-10T12:17:58.515Z,15.48
2023-05-10T12:23:04.490Z,16.18
2023-05-10T12:28:08.895Z,16.03
2023-05-10T12:33:13.597Z,16.20
2023-05-10T12:38:33.890Z,16.56
2023-05-10T12:43:37.489Z,16.31
2023-05-10T12:48:40.719Z,16.51
2023-05-10T12:53:45.681Z,16.52
2023-05-10T12:58:49.431Z,16.29
2023-05-10T13:03:52.285Z,16.21
2023-05-10T13:08:54.772Z,16.48
2023-05-10T13:13:57.265Z,16.44
2023-05-10T13:19:00.004Z,16.35
2023-05-10T13:24:02.915Z,16.31
2023-05-10T13:29:05.395Z,16.05
2023-05-10T13:34:07.797Z,15.86
2023-05-10T13:39:10.386Z,16.43
2023-05-10T13:44:14.605Z,16.40
2023-05-10T13:49:17.082Z,16.23
2023-05-10T13:54:21.298Z,15.91
2023-05-10T13:59:23.850Z,16.23
2023-05-10T14:04:26.714Z,16.30
2023-05-10T14:09:29.261Z,16.03
2023-05-10T14:14:31.891Z,16.22
2023-05-10T14:19:35.385Z,15.96
2023-05-10T14:24:37.830Z,15.60
2023-05-10T14:29:40.286Z,16.08
2023-05-10T14:34:42.653Z,16.16
2023-05-10T14:39:45.183Z,16.15
2023-05-10T14:44:47.715Z,16.03
2023-05-10T14:49:50.194Z,15.99
2023-05-10T14:54:52.750Z,15.90
2023-05-10T14:59:55.289Z,15.68
2023-05-10T15:04:59.628Z,15.90
2023-05-10T15:10:02.851Z,15.89
2023-05-10T15:15:08.127Z,15.74
2023-05-10T15:20:11.173Z,15.93
2023-05-10T15:25:15.788Z,15.76
2023-05-10T15:30:18.544Z,15.84
2023-05-10T15:35:21.018Z,15.68
2023-05-10T15:40:24.304Z,15.63
2023-05-10T15:45:27.883Z,15.56
2023-05-10T15:50:30.400Z,15.49
2023-05-10T15:55:35.445Z,15.24
2023-05-10T16:00:38.249Z,15.56
2023-05-10T16:05:40.755Z,15.51
2023-05-10T16:10:43.223Z,15.32
2023-05-10T16:15:45.815Z,15.38
2023-05-10T16:20:48.909Z,15.22
2023-05-10T16:25:52.382Z,14.88
2023-05-10T16:30:55.026Z,14.78
2023-05-10T16:35:57.614Z,15.11
2023-05-10T16:41:02.758Z,14.63
2023-05-10T16:46:10.977Z,14.78
2023-05-10T16:51:13.583Z,14.74
2023-05-10T16:56:18.134Z,14.63
2023-05-10T17:01:20.861Z,14.60
2023-05-10T17:06:23.383Z,14.63
2023-05-10T17:11:25.913Z,14.30
2023-05-10T17:16:29.505Z,14.47
2023-05-10T17:21:32.471Z,13.94
2023-05-10T17:26:35.235Z,14.19
2023-05-10T17:31:38.030Z,13.81
2023-05-10T17:36:40.946Z,13.86
2023-05-10T17:41:43.482Z,14.07
2023-05-10T17:46:46.045Z,13.87
2023-05-10T17:51:48.602Z,13.44
2023-05-10T17:56:53.926Z,13.82
2023-05-10T18:01:56.495Z,13.41
2023-05-10T18:07:01.933Z,13.41
2023-05-10T18:12:05.076Z,13.52
2023-05-10T18:17:07.829Z,13.01
2023-05-10T18:22:11.026Z,13.32
2023-05-10T18:27:14.026Z,12.90
2023-05-10T18:32:16.833Z,13.35
2023-05-10T18:37:19.904Z,13.06
2023-05-10T18:42:24.039Z,12.91
2023-05-10T18:47:27.727Z,13.13
2023-05-10T18:52:30.509Z,12.86
2023-05-10T18:57:33.114Z,12.19
2023-05-10T19:02:39.543Z,12.57
2023-05-10T19:07:44.149Z,12.77
2023-05-10T19:12:46.715Z,12.61
2023-05-10T19:17:50.680Z,13.11
2023-05-10T19:23:09.269Z,12.82
2023-05-10T19:28:14.449Z,12.88
2023-05-10T19:33:20.447Z,12.72
2023-05-10T19:38:23.994Z,12.74
2023-05-10T19:43:27.711Z,12.71
2023-05-10T19:48:30.846Z,12.86
2023-05-10T19:53:33.535Z,12.70
2023-05-10T19:58:39.164Z,12.46
2023-05-10T20:03:41.928Z,12.58
2023-05-10T20:08:44.561Z,12.60
2023-05-10T20:13:47.003Z,12.55
2023-05-10T20:18:49.659Z,12.23
2023-05-10T20:23:55.735Z,12.34
2023-05-10T20:28:58.463Z,12.21
2023-05-10T20:34:00.996Z,12.16
2023-05-10T20:39:03.634Z,12.24
2023-05-10T20:44:06.453Z,12.17
2023-05-10T20:49:09.533Z,11.71
2023-05-10T20:54:12.145Z,12.07
2023-05-10T20:59:14.533Z,11.64
2023-05-10T21:04:17.063Z,11.84
2023-05-10T21:09:19.565Z,11.89
2023-05-10T21:14:22.239Z,11.87
2023-05-10T21:19:24.856Z,11.63
2023-05-10T21:24:27.429Z,11.53
2023-05-10T21:29:29.823Z,11.33
2023-05-10T21:34:32.435Z,11.62
2023-05-10T21:39:34.902Z,10.48
2023-05-10T21:44:38.992Z,11.04
2023-05-10T21:49:41.586Z,11.40
2023-05-10T21:54:44.130Z,10.73
2023-05-10T21:59:46.722Z,11.18
2023-05-10T22:04:49.442Z,11.22
2023-05-10T22:09:52.015Z,10.86
2023-05-10T22:15:09.174Z,10.55
2023-05-10T22:20:12.896Z,10.95
2023-05-10T22:25:15.495Z,10.79
2023-05-10T22:30:18.443Z,10.62
2023-05-10T22:35:21.390Z,10.45
2023-05-10T22:40:23.898Z,10.91
2023-05-10T22:45:26.347Z,10.47
2023-05-10T22:50:30.604Z,10.71
2023-05-10T22:55:33.066Z,10.78
2023-05-10T23:00:35.659Z,10.25
2023-05-10T23:05:38.426Z,10.25
2023-05-10T23:10:41.524Z,10.00
2023-05-10T23:15:44.177Z,10.11
2023-05-10T23:20:46.608Z,10.49
2023-05-10T23:25:49.104Z,9.90
2023-05-10T23:30:57.937Z,10.08
2023-05-10T23:36:00.412Z,10.17
2023-05-10T23:41:02.909Z,10.17
2023-05-10T23:46:06.860Z,10.27
2023-05-10T23:51:09.415Z,9.91
2023-05-10T23:56:12.175Z,10.16
